PWSweather.com
Personal Weather Stations
Station Observations
KKYCRABO2
Cedar Creek Lake 840 Ky. Hwy. 39 N, Crab Orchard, KY 40419

Cedar Creek Lake 840 Ky. Hwy. 39 NCrab Orchard, KY 40419

Lat: 37.4736234544238, Lon: -84.5120286941528

Elevation: 952

Station Type: TYCON Power TP1080WC Pro

http://kbweather.net/

High Low Average
Temperature 52.7°F11.5°C 29.7°F-1.3°C 40.5°F4.7°C
Dew Point 33.8°F1.0°C 19.4°F-7.0°C 27.4°F-2.6°C
Winds 6.9 mph 11.1 kmh Calm Calm 2.0 mph S3.2 kmh S
Wind Gusts 10.5 mph16.9 kmh -- 4.0 mph6.4 kmh
Humidity 74% 43% 60%
Pressure 30.06 in1017.9 mb 29.82 in1009.8 mb -
Precipitation 0.00 in0.0 mm - -
Hour Temp Dew Point Humidity Winds Wind Gusts Pressure Precip Precip Rate Daily Precip Total
12:00 AM 42.4°F5.8°C 33.8°F1.0°C 67% 1.1 mph SW1.8 kmh SW 2.2 mph3.5 kmh 29.82 in1009.8 mb 0.00 in0.0 mm 0.00 in0.0 mm 0.00 in0.0 mm
12:05 AM 42.1°F5.6°C 32.0°F0.0°C 66% 2.2 mph SW3.5 kmh SW 3.1 mph5.0 kmh 29.82 in1009.8 mb 0.00 in0.0 mm 0.00 in0.0 mm 0.00 in0.0 mm
12:10 AM 42.1°F5.6°C 32.0°F0.0°C 66% 2.5 mph SW4.0 kmh SW 3.1 mph5.0 kmh 29.82 in1009.8 mb 0.00 in0.0 mm 0.00 in0.0 mm 0.00 in0.0 mm
12:15 AM 41.9°F5.5°C 32.0°F0.0°C 66% 1.6 mph SW2.6 kmh SW 3.4 mph5.5 kmh 29.82 in1009.8 mb 0.00 in0.0 mm 0.00 in0.0 mm 0.00 in0.0 mm
12:20 AM 41.9°F5.5°C 32.0°F0.0°C 66% 1.6 mph SW2.6 kmh SW 3.4 mph5.5 kmh 29.82 in1009.8 mb 0.00 in0.0 mm 0.00 in0.0 mm 0.00 in0.0 mm
12:25 AM 41.9°F5.5°C 32.0°F0.0°C 66% 1.6 mph SW2.6 kmh SW 3.4 mph5.5 kmh 29.82 in1009.8 mb 0.00 in0.0 mm 0.00 in0.0 mm 0.00 in0.0 mm
12:30 AM 41.5°F5.3°C 32.0°F0.0°C 66% 1.6 mph SW2.6 kmh SW 3.4 mph5.5 kmh 29.82 in1009.8 mb 0.00 in0.0 mm 0.00 in0.0 mm 0.00 in0.0 mm
12:35 AM 41.4°F5.2°C 30.2°F-1.0°C 66% 2.5 mph SW4.0 kmh SW 3.4 mph5.5 kmh 29.82 in1009.8 mb 0.00 in0.0 mm 0.00 in0.0 mm 0.00 in0.0 mm
12:40 AM 41.4°F5.2°C 30.2°F-1.0°C 66% 2.5 mph WSW4.0 kmh WSW 3.4 mph5.5 kmh 29.82 in1009.8 mb 0.00 in0.0 mm 0.00 in0.0 mm 0.00 in0.0 mm
12:45 AM 41.0°F5.0°C 30.2°F-1.0°C 66% 1.3 mph WSW2.1 kmh WSW 2.0 mph3.2 kmh 29.82 in1009.8 mb 0.00 in0.0 mm 0.00 in0.0 mm 0.00 in0.0 mm
12:50 AM 40.8°F4.9°C 30.2°F-1.0°C 66% 1.3 mph WSW2.1 kmh WSW 2.0 mph3.2 kmh 29.82 in1009.8 mb 0.00 in0.0 mm 0.00 in0.0 mm 0.00 in0.0 mm
12:55 AM 40.8°F4.9°C 30.2°F-1.0°C 66% 1.3 mph WSW2.1 kmh WSW 0.9 mph1.4 kmh 29.82 in1009.8 mb 0.00 in0.0 mm 0.00 in0.0 mm 0.00 in0.0 mm
01:00 AM 40.8°F4.9°C 30.2°F-1.0°C 66% 1.3 mph WSW2.1 kmh WSW 0.9 mph1.4 kmh 29.82 in1009.8 mb 0.00 in0.0 mm 0.00 in0.0 mm 0.00 in0.0 mm
01:05 AM 40.6°F4.8°C 30.2°F-1.0°C 66% 1.3 mph WSW2.1 kmh WSW 0.9 mph1.4 kmh 29.82 in1009.8 mb 0.00 in0.0 mm 0.00 in0.0 mm 0.00 in0.0 mm
01:10 AM 40.8°F4.9°C 30.2°F-1.0°C 66% 2.7 mph WSW4.3 kmh WSW 5.4 mph8.7 kmh 29.82 in1009.8 mb 0.00 in0.0 mm 0.00 in0.0 mm 0.00 in0.0 mm
01:15 AM 41.0°F5.0°C 30.2°F-1.0°C 65% 2.7 mph WSW4.3 kmh WSW 5.4 mph8.7 kmh 29.82 in1009.8 mb 0.00 in0.0 mm 0.00 in0.0 mm 0.00 in0.0 mm
01:20 AM 41.0°F5.0°C 30.2°F-1.0°C 64% 2.7 mph WSW4.3 kmh WSW 5.4 mph8.7 kmh 29.82 in1009.8 mb 0.00 in0.0 mm 0.00 in0.0 mm 0.00 in0.0 mm
01:25 AM 40.8°F4.9°C 30.2°F-1.0°C 64% 2.7 mph WSW4.3 kmh WSW 5.4 mph8.7 kmh 29.82 in1009.8 mb 0.00 in0.0 mm 0.00 in0.0 mm 0.00 in0.0 mm
01:30 AM 40.6°F4.8°C 30.2°F-1.0°C 64% 2.7 mph WSW4.3 kmh WSW 5.4 mph8.7 kmh 29.82 in1009.8 mb 0.00 in0.0 mm 0.00 in0.0 mm 0.00 in0.0 mm
01:35 AM 40.6°F4.8°C 30.2°F-1.0°C 64% 2.7 mph WSW4.3 kmh WSW 5.4 mph8.7 kmh 29.82 in1009.8 mb 0.00 in0.0 mm 0.00 in0.0 mm 0.00 in0.0 mm
01:40 AM 40.5°F4.7°C 30.2°F-1.0°C 64% 2.7 mph WSW4.3 kmh WSW 5.4 mph8.7 kmh 29.82 in1009.8 mb 0.00 in0.0 mm 0.00 in0.0 mm 0.00 in0.0 mm
01:45 AM 40.3°F4.6°C 30.2°F-1.0°C 64% 2.7 mph WSW4.3 kmh WSW 5.4 mph8.7 kmh 29.82 in1009.8 mb 0.00 in0.0 mm 0.00 in0.0 mm 0.00 in0.0 mm
01:50 AM 40.1°F4.5°C 30.2°F-1.0°C 65% 2.5 mph WSW4.0 kmh WSW 1.6 mph2.6 kmh 29.82 in1009.8 mb 0.00 in0.0 mm 0.00 in0.0 mm 0.00 in0.0 mm
01:55 AM 40.1°F4.5°C 30.2°F-1.0°C 65% 3.1 mph WSW5.0 kmh WSW 3.6 mph5.8 kmh 29.82 in1009.8 mb 0.00 in0.0 mm 0.00 in0.0 mm 0.00 in0.0 mm
02:00 AM 39.9°F4.4°C 30.2°F-1.0°C 65% 3.1 mph WSW5.0 kmh WSW 3.6 mph5.8 kmh 29.85 in1010.8 mb 0.00 in0.0 mm 0.00 in0.0 mm 0.00 in0.0 mm
02:05 AM 39.7°F4.3°C 30.2°F-1.0°C 65% 3.6 mph WSW5.8 kmh WSW 3.6 mph5.8 kmh 29.85 in1010.8 mb 0.00 in0.0 mm 0.00 in0.0 mm 0.00 in0.0 mm
02:10 AM 39.7°F4.3°C 30.2°F-1.0°C 65% 2.7 mph WSW4.3 kmh WSW 3.6 mph5.8 kmh 29.85 in1010.8 mb 0.00 in0.0 mm 0.00 in0.0 mm 0.00 in0.0 mm
02:15 AM 39.7°F4.3°C 30.2°F-1.0°C 65% 2.0 mph WSW3.2 kmh WSW 3.8 mph6.1 kmh 29.85 in1010.8 mb 0.00 in0.0 mm 0.00 in0.0 mm 0.00 in0.0 mm
02:20 AM 39.7°F4.3°C 30.2°F-1.0°C 65% 3.1 mph WSW5.0 kmh WSW 3.8 mph6.1 kmh 29.85 in1010.8 mb 0.00 in0.0 mm 0.00 in0.0 mm 0.00 in0.0 mm
02:25 AM 39.7°F4.3°C 30.2°F-1.0°C 65% 2.7 mph WSW4.3 kmh WSW 3.1 mph5.0 kmh 29.85 in1010.8 mb 0.00 in0.0 mm 0.00 in0.0 mm 0.00 in0.0 mm
02:30 AM 39.7°F4.3°C 30.2°F-1.0°C 65% 3.1 mph SW5.0 kmh SW 3.8 mph6.1 kmh 29.85 in1010.8 mb 0.00 in0.0 mm 0.00 in0.0 mm 0.00 in0.0 mm
02:35 AM 39.7°F4.3°C 30.2°F-1.0°C 65% 3.6 mph SW5.8 kmh SW 3.8 mph6.1 kmh 29.85 in1010.8 mb 0.00 in0.0 mm 0.00 in0.0 mm 0.00 in0.0 mm
02:40 AM 39.7°F4.3°C 30.2°F-1.0°C 65% 4.0 mph WSW6.4 kmh WSW 3.8 mph6.1 kmh 29.85 in1010.8 mb 0.00 in0.0 mm 0.00 in0.0 mm 0.00 in0.0 mm
02:45 AM 39.4°F4.1°C 28.4°F-2.0°C 65% 2.9 mph WSW4.7 kmh WSW 3.8 mph6.1 kmh 29.85 in1010.8 mb 0.00 in0.0 mm 0.00 in0.0 mm 0.00 in0.0 mm
02:50 AM 39.4°F4.1°C 28.4°F-2.0°C 66% 2.9 mph SW4.7 kmh SW 3.8 mph6.1 kmh 29.85 in1010.8 mb 0.00 in0.0 mm 0.00 in0.0 mm 0.00 in0.0 mm
02:55 AM 39.4°F4.1°C 28.4°F-2.0°C 66% 3.1 mph WSW5.0 kmh WSW 4.3 mph6.9 kmh 29.85 in1010.8 mb 0.00 in0.0 mm 0.00 in0.0 mm 0.00 in0.0 mm
03:00 AM 39.4°F4.1°C 28.4°F-2.0°C 65% 2.9 mph WSW4.7 kmh WSW 4.3 mph6.9 kmh 29.85 in1010.8 mb 0.00 in0.0 mm 0.00 in0.0 mm 0.00 in0.0 mm
03:05 AM 39.2°F4.0°C 28.4°F-2.0°C 66% 2.5 mph WSW4.0 kmh WSW 2.9 mph4.7 kmh 29.85 in1010.8 mb 0.00 in0.0 mm 0.00 in0.0 mm 0.00 in0.0 mm
03:10 AM 39.0°F3.9°C 28.4°F-2.0°C 66% 2.0 mph WSW3.2 kmh WSW 3.8 mph6.1 kmh 29.85 in1010.8 mb 0.00 in0.0 mm 0.00 in0.0 mm 0.00 in0.0 mm
03:15 AM 39.0°F3.9°C 30.2°F-1.0°C 67% 2.5 mph WSW4.0 kmh WSW 3.8 mph6.1 kmh 29.88 in1011.9 mb 0.00 in0.0 mm 0.00 in0.0 mm 0.00 in0.0 mm
03:20 AM 39.0°F3.9°C 30.2°F-1.0°C 67% 2.5 mph WSW4.0 kmh WSW 3.4 mph5.5 kmh 29.88 in1011.9 mb 0.00 in0.0 mm 0.00 in0.0 mm 0.00 in0.0 mm
03:25 AM 39.0°F3.9°C 28.4°F-2.0°C 66% 2.0 mph WSW3.2 kmh WSW 3.4 mph5.5 kmh 29.88 in1011.9 mb 0.00 in0.0 mm 0.00 in0.0 mm 0.00 in0.0 mm
03:30 AM 38.8°F3.8°C 28.4°F-2.0°C 66% 3.6 mph WSW5.8 kmh WSW 5.4 mph8.7 kmh 29.88 in1011.9 mb 0.00 in0.0 mm 0.00 in0.0 mm 0.00 in0.0 mm
03:35 AM 39.0°F3.9°C 30.2°F-1.0°C 67% 3.1 mph WSW5.0 kmh WSW 5.4 mph8.7 kmh 29.88 in1011.9 mb 0.00 in0.0 mm 0.00 in0.0 mm 0.00 in0.0 mm
03:40 AM 38.8°F3.8°C 28.4°F-2.0°C 66% 2.9 mph WSW4.7 kmh WSW 5.4 mph8.7 kmh 29.88 in1011.9 mb 0.00 in0.0 mm 0.00 in0.0 mm 0.00 in0.0 mm
03:45 AM 38.8°F3.8°C 28.4°F-2.0°C 67% 2.5 mph WSW4.0 kmh WSW 3.8 mph6.1 kmh 29.88 in1011.9 mb 0.00 in0.0 mm 0.00 in0.0 mm 0.00 in0.0 mm
03:50 AM 38.8°F3.8°C 28.4°F-2.0°C 67% 2.7 mph WSW4.3 kmh WSW 3.6 mph5.8 kmh 29.88 in1011.9 mb 0.00 in0.0 mm 0.00 in0.0 mm 0.00 in0.0 mm
03:55 AM 38.8°F3.8°C 28.4°F-2.0°C 67% 2.5 mph W4.0 kmh W 2.2 mph3.5 kmh 29.88 in1011.9 mb 0.00 in0.0 mm 0.00 in0.0 mm 0.00 in0.0 mm
04:00 AM 38.8°F3.8°C 28.4°F-2.0°C 67% 2.5 mph WSW4.0 kmh WSW 2.2 mph3.5 kmh 29.88 in1011.9 mb 0.00 in0.0 mm 0.00 in0.0 mm 0.00 in0.0 mm
04:05 AM 39.0°F3.9°C 30.2°F-1.0°C 67% 2.5 mph WSW4.0 kmh WSW 1.6 mph2.6 kmh 29.88 in1011.9 mb 0.00 in0.0 mm 0.00 in0.0 mm 0.00 in0.0 mm
04:10 AM 39.0°F3.9°C 30.2°F-1.0°C 67% 2.5 mph WSW4.0 kmh WSW 1.6 mph2.6 kmh 29.88 in1011.9 mb 0.00 in0.0 mm 0.00 in0.0 mm 0.00 in0.0 mm
04:15 AM 38.8°F3.8°C 28.4°F-2.0°C 67% 4.0 mph WSW6.4 kmh WSW 2.7 mph4.3 kmh 29.91 in1012.9 mb 0.00 in0.0 mm 0.00 in0.0 mm 0.00 in0.0 mm
04:20 AM 38.8°F3.8°C 30.2°F-1.0°C 68% 3.1 mph WSW5.0 kmh WSW 3.6 mph5.8 kmh 29.91 in1012.9 mb 0.00 in0.0 mm 0.00 in0.0 mm 0.00 in0.0 mm
04:25 AM 38.8°F3.8°C 30.2°F-1.0°C 68% 3.4 mph WSW5.5 kmh WSW 4.3 mph6.9 kmh 29.91 in1012.9 mb 0.00 in0.0 mm 0.00 in0.0 mm 0.00 in0.0 mm
04:30 AM 38.8°F3.8°C 28.4°F-2.0°C 67% 2.9 mph W4.7 kmh W 4.3 mph6.9 kmh 29.88 in1011.9 mb 0.00 in0.0 mm 0.00 in0.0 mm 0.00 in0.0 mm
04:35 AM 38.5°F3.6°C 28.4°F-2.0°C 67% 2.0 mph WNW3.2 kmh WNW 4.3 mph6.9 kmh 29.88 in1011.9 mb 0.00 in0.0 mm 0.00 in0.0 mm 0.00 in0.0 mm
04:40 AM 38.3°F3.5°C 30.2°F-1.0°C 68% 2.2 mph WNW3.5 kmh WNW 3.1 mph5.0 kmh 29.88 in1011.9 mb 0.00 in0.0 mm 0.00 in0.0 mm 0.00 in0.0 mm
04:45 AM 38.1°F3.4°C 28.4°F-2.0°C 68% 1.6 mph WSW2.6 kmh WSW 2.0 mph3.2 kmh 29.88 in1011.9 mb 0.00 in0.0 mm 0.00 in0.0 mm 0.00 in0.0 mm
04:50 AM 38.1°F3.4°C 28.4°F-2.0°C 68% 1.1 mph WSW1.8 kmh WSW 2.0 mph3.2 kmh 29.88 in1011.9 mb 0.00 in0.0 mm 0.00 in0.0 mm 0.00 in0.0 mm
04:55 AM 37.9°F3.3°C 28.4°F-2.0°C 68% 1.6 mph SW2.6 kmh SW 2.7 mph4.3 kmh 29.88 in1011.9 mb 0.00 in0.0 mm 0.00 in0.0 mm 0.00 in0.0 mm
05:00 AM 37.8°F3.2°C 28.4°F-2.0°C 68% 2.5 mph WSW4.0 kmh WSW 3.4 mph5.5 kmh 29.88 in1011.9 mb 0.00 in0.0 mm 0.00 in0.0 mm 0.00 in0.0 mm
05:05 AM 37.6°F3.1°C 28.4°F-2.0°C 68% 2.0 mph WSW3.2 kmh WSW 3.4 mph5.5 kmh 29.88 in1011.9 mb 0.00 in0.0 mm 0.00 in0.0 mm 0.00 in0.0 mm
05:10 AM 37.2°F2.9°C 28.4°F-2.0°C 69% 2.2 mph WSW3.5 kmh WSW 3.4 mph5.5 kmh 29.88 in1011.9 mb 0.00 in0.0 mm 0.00 in0.0 mm 0.00 in0.0 mm
05:15 AM 36.9°F2.7°C 28.4°F-2.0°C 69% 2.0 mph SW3.2 kmh SW 2.2 mph3.5 kmh 29.88 in1011.9 mb 0.00 in0.0 mm 0.00 in0.0 mm 0.00 in0.0 mm
05:20 AM 36.7°F2.6°C 28.4°F-2.0°C 69% 1.1 mph SW1.8 kmh SW 2.2 mph3.5 kmh 29.88 in1011.9 mb 0.00 in0.0 mm 0.00 in0.0 mm 0.00 in0.0 mm
05:25 AM 36.5°F2.5°C 28.4°F-2.0°C 70% Calm Calm 1.6 mph2.6 kmh 29.88 in1011.9 mb 0.00 in0.0 mm 0.00 in0.0 mm 0.00 in0.0 mm
05:30 AM 36.3°F2.4°C 28.4°F-2.0°C 70% 1.3 mph SW2.1 kmh SW 1.6 mph2.6 kmh 29.88 in1011.9 mb 0.00 in0.0 mm 0.00 in0.0 mm 0.00 in0.0 mm
05:35 AM 36.0°F2.2°C 26.6°F-3.0°C 70% 2.0 mph SW3.2 kmh SW 2.5 mph4.0 kmh 29.88 in1011.9 mb 0.00 in0.0 mm 0.00 in0.0 mm 0.00 in0.0 mm
05:40 AM 35.8°F2.1°C 28.4°F-2.0°C 72% 1.1 mph SW1.8 kmh SW 2.7 mph4.3 kmh 29.88 in1011.9 mb 0.00 in0.0 mm 0.00 in0.0 mm 0.00 in0.0 mm
05:45 AM 35.8°F2.1°C 28.4°F-2.0°C 72% 1.6 mph SW2.6 kmh SW 2.7 mph4.3 kmh 29.88 in1011.9 mb 0.00 in0.0 mm 0.00 in0.0 mm 0.00 in0.0 mm
05:50 AM 35.8°F2.1°C 28.4°F-2.0°C 73% 2.7 mph SW4.3 kmh SW 2.7 mph4.3 kmh 29.88 in1011.9 mb 0.00 in0.0 mm 0.00 in0.0 mm 0.00 in0.0 mm
05:55 AM 36.0°F2.2°C 28.4°F-2.0°C 73% 2.2 mph WSW3.5 kmh WSW 4.3 mph6.9 kmh 29.88 in1011.9 mb 0.00 in0.0 mm 0.00 in0.0 mm 0.00 in0.0 mm
06:00 AM 36.0°F2.2°C 28.4°F-2.0°C 73% 2.5 mph WSW4.0 kmh WSW 4.3 mph6.9 kmh 29.91 in1012.9 mb 0.00 in0.0 mm 0.00 in0.0 mm 0.00 in0.0 mm
06:05 AM 36.1°F2.3°C 28.4°F-2.0°C 73% 3.4 mph WSW5.5 kmh WSW 4.3 mph6.9 kmh 29.91 in1012.9 mb 0.00 in0.0 mm 0.00 in0.0 mm 0.00 in0.0 mm
06:10 AM 36.3°F2.4°C 28.4°F-2.0°C 73% 2.0 mph WSW3.2 kmh WSW 3.6 mph5.8 kmh 29.91 in1012.9 mb 0.00 in0.0 mm 0.00 in0.0 mm 0.00 in0.0 mm
06:15 AM 36.3°F2.4°C 28.4°F-2.0°C 73% 1.6 mph SW2.6 kmh SW 3.6 mph5.8 kmh 29.91 in1012.9 mb 0.00 in0.0 mm 0.00 in0.0 mm 0.00 in0.0 mm
06:20 AM 36.1°F2.3°C 28.4°F-2.0°C 73% 2.0 mph SW3.2 kmh SW 2.2 mph3.5 kmh 29.91 in1012.9 mb 0.00 in0.0 mm 0.00 in0.0 mm 0.00 in0.0 mm
06:25 AM 36.1°F2.3°C 28.4°F-2.0°C 73% Calm Calm 2.2 mph3.5 kmh 29.91 in1012.9 mb 0.00 in0.0 mm 0.00 in0.0 mm 0.00 in0.0 mm
06:30 AM 36.3°F2.4°C 28.4°F-2.0°C 73% Calm Calm 2.2 mph3.5 kmh 29.91 in1012.9 mb 0.00 in0.0 mm 0.00 in0.0 mm 0.00 in0.0 mm
06:35 AM 36.3°F2.4°C 28.4°F-2.0°C 73% 1.3 mph SSW2.1 kmh SSW 2.5 mph4.0 kmh 29.91 in1012.9 mb 0.00 in0.0 mm 0.00 in0.0 mm 0.00 in0.0 mm
06:40 AM 36.7°F2.6°C 30.2°F-1.0°C 74% 1.6 mph SSW2.6 kmh SSW 2.5 mph4.0 kmh 29.91 in1012.9 mb 0.00 in0.0 mm 0.00 in0.0 mm 0.00 in0.0 mm
06:45 AM 36.7°F2.6°C 30.2°F-1.0°C 74% 1.1 mph SSW1.8 kmh SSW 2.5 mph4.0 kmh 29.94 in1013.9 mb 0.00 in0.0 mm 0.00 in0.0 mm 0.00 in0.0 mm
06:50 AM 36.9°F2.7°C 30.2°F-1.0°C 74% 2.0 mph SW3.2 kmh SW 2.7 mph4.3 kmh 29.94 in1013.9 mb 0.00 in0.0 mm 0.00 in0.0 mm 0.00 in0.0 mm
06:55 AM 36.9°F2.7°C 30.2°F-1.0°C 74% 2.0 mph SW3.2 kmh SW 2.7 mph4.3 kmh 29.94 in1013.9 mb 0.00 in0.0 mm 0.00 in0.0 mm 0.00 in0.0 mm
07:00 AM 36.9°F2.7°C 30.2°F-1.0°C 74% 1.6 mph SSW2.6 kmh SSW 2.7 mph4.3 kmh 29.94 in1013.9 mb 0.00 in0.0 mm 0.00 in0.0 mm 0.00 in0.0 mm
07:05 AM 36.9°F2.7°C 30.2°F-1.0°C 74% 0.9 mph SW1.4 kmh SW 2.7 mph4.3 kmh 29.94 in1013.9 mb 0.00 in0.0 mm 0.00 in0.0 mm 0.00 in0.0 mm
07:10 AM 36.7°F2.6°C 30.2°F-1.0°C 73% 2.0 mph SW3.2 kmh SW 2.5 mph4.0 kmh 29.94 in1013.9 mb 0.00 in0.0 mm 0.00 in0.0 mm 0.00 in0.0 mm
07:15 AM 36.3°F2.4°C 28.4°F-2.0°C 73% 2.0 mph SW3.2 kmh SW 2.7 mph4.3 kmh 29.94 in1013.9 mb 0.00 in0.0 mm 0.00 in0.0 mm 0.00 in0.0 mm
07:20 AM 36.1°F2.3°C 28.4°F-2.0°C 73% 2.0 mph SW3.2 kmh SW 2.7 mph4.3 kmh 29.94 in1013.9 mb 0.00 in0.0 mm 0.00 in0.0 mm 0.00 in0.0 mm
07:25 AM 36.0°F2.2°C 28.4°F-2.0°C 73% 2.0 mph SW3.2 kmh SW 2.2 mph3.5 kmh 29.94 in1013.9 mb 0.00 in0.0 mm 0.00 in0.0 mm 0.00 in0.0 mm
07:30 AM 36.0°F2.2°C 28.4°F-2.0°C 74% 2.0 mph SW3.2 kmh SW 2.2 mph3.5 kmh 29.94 in1013.9 mb 0.00 in0.0 mm 0.00 in0.0 mm 0.00 in0.0 mm
07:35 AM 36.0°F2.2°C 28.4°F-2.0°C 74% 1.6 mph SW2.6 kmh SW 1.6 mph2.6 kmh 29.94 in1013.9 mb 0.00 in0.0 mm 0.00 in0.0 mm 0.00 in0.0 mm
07:40 AM 36.0°F2.2°C 28.4°F-2.0°C 74% 1.3 mph SW2.1 kmh SW 2.0 mph3.2 kmh 29.94 in1013.9 mb 0.00 in0.0 mm 0.00 in0.0 mm 0.00 in0.0 mm
07:45 AM 36.0°F2.2°C 28.4°F-2.0°C 74% 1.6 mph SW2.6 kmh SW 2.0 mph3.2 kmh 29.94 in1013.9 mb 0.00 in0.0 mm 0.00 in0.0 mm 0.00 in0.0 mm
07:50 AM 36.0°F2.2°C 28.4°F-2.0°C 74% 2.2 mph SW3.5 kmh SW 3.6 mph5.8 kmh 29.94 in1013.9 mb 0.00 in0.0 mm 0.00 in0.0 mm 0.00 in0.0 mm
07:55 AM 35.8°F2.1°C 28.4°F-2.0°C 74% 2.7 mph WSW4.3 kmh WSW 3.6 mph5.8 kmh 29.94 in1013.9 mb 0.00 in0.0 mm 0.00 in0.0 mm 0.00 in0.0 mm
08:00 AM 35.8°F2.1°C 28.4°F-2.0°C 74% 1.6 mph WSW2.6 kmh WSW 2.9 mph4.7 kmh 29.94 in1013.9 mb 0.00 in0.0 mm 0.00 in0.0 mm 0.00 in0.0 mm
08:05 AM 35.8°F2.1°C 28.4°F-2.0°C 74% 2.2 mph SW3.5 kmh SW 3.1 mph5.0 kmh 29.94 in1013.9 mb 0.00 in0.0 mm 0.00 in0.0 mm 0.00 in0.0 mm
08:10 AM 35.8°F2.1°C 28.4°F-2.0°C 73% 2.0 mph S3.2 kmh S 3.1 mph5.0 kmh 29.94 in1013.9 mb 0.00 in0.0 mm 0.00 in0.0 mm 0.00 in0.0 mm
08:15 AM 36.0°F2.2°C 28.4°F-2.0°C 74% 0.9 mph S1.4 kmh S 2.5 mph4.0 kmh 29.94 in1013.9 mb 0.00 in0.0 mm 0.00 in0.0 mm 0.00 in0.0 mm
08:20 AM 36.5°F2.5°C 30.2°F-1.0°C 74% 2.0 mph SSW3.2 kmh SSW 2.5 mph4.0 kmh 29.94 in1013.9 mb 0.00 in0.0 mm 0.00 in0.0 mm 0.00 in0.0 mm
08:25 AM 36.7°F2.6°C 30.2°F-1.0°C 74% 1.3 mph SSW2.1 kmh SSW 2.2 mph3.5 kmh 29.94 in1013.9 mb 0.00 in0.0 mm 0.00 in0.0 mm 0.00 in0.0 mm
08:30 AM 37.0°F2.8°C 30.2°F-1.0°C 74% Calm Calm 2.5 mph4.0 kmh 29.97 in1014.9 mb 0.00 in0.0 mm 0.00 in0.0 mm 0.00 in0.0 mm
08:35 AM 37.4°F3.0°C 30.2°F-1.0°C 74% 1.1 mph SW1.8 kmh SW 2.5 mph4.0 kmh 29.97 in1014.9 mb 0.00 in0.0 mm 0.00 in0.0 mm 0.00 in0.0 mm
08:40 AM 37.8°F3.2°C 30.2°F-1.0°C 73% 2.0 mph SW3.2 kmh SW 2.7 mph4.3 kmh 29.97 in1014.9 mb 0.00 in0.0 mm 0.00 in0.0 mm 0.00 in0.0 mm
08:45 AM 37.8°F3.2°C 30.2°F-1.0°C 72% 1.1 mph SW1.8 kmh SW 2.7 mph4.3 kmh 29.97 in1014.9 mb 0.00 in0.0 mm 0.00 in0.0 mm 0.00 in0.0 mm
08:50 AM 37.9°F3.3°C 30.2°F-1.0°C 71% 2.2 mph SW3.5 kmh SW 2.7 mph4.3 kmh 29.97 in1014.9 mb 0.00 in0.0 mm 0.00 in0.0 mm 0.00 in0.0 mm
08:55 AM 38.1°F3.4°C 30.2°F-1.0°C 71% 2.7 mph SSW4.3 kmh SSW 2.7 mph4.3 kmh 29.97 in1014.9 mb 0.00 in0.0 mm 0.00 in0.0 mm 0.00 in0.0 mm
09:00 AM 38.3°F3.5°C 30.2°F-1.0°C 70% 2.9 mph SSW4.7 kmh SSW 2.7 mph4.3 kmh 29.97 in1014.9 mb 0.00 in0.0 mm 0.00 in0.0 mm 0.00 in0.0 mm
09:05 AM 38.3°F3.5°C 30.2°F-1.0°C 69% 2.7 mph SW4.3 kmh SW 3.6 mph5.8 kmh 29.97 in1014.9 mb 0.00 in0.0 mm 0.00 in0.0 mm 0.00 in0.0 mm
09:10 AM 38.3°F3.5°C 30.2°F-1.0°C 69% 2.9 mph SW4.7 kmh SW 3.8 mph6.1 kmh 29.97 in1014.9 mb 0.00 in0.0 mm 0.00 in0.0 mm 0.00 in0.0 mm
09:15 AM 38.7°F3.7°C 30.2°F-1.0°C 70% 2.0 mph SW3.2 kmh SW 3.8 mph6.1 kmh 30.00 in1015.9 mb 0.00 in0.0 mm 0.00 in0.0 mm 0.00 in0.0 mm
09:20 AM 38.8°F3.8°C 30.2°F-1.0°C 70% 2.0 mph SSW3.2 kmh SSW 2.9 mph4.7 kmh 30.00 in1015.9 mb 0.00 in0.0 mm 0.00 in0.0 mm 0.00 in0.0 mm
09:25 AM 39.2°F4.0°C 30.2°F-1.0°C 70% 2.0 mph S3.2 kmh S 3.4 mph5.5 kmh 30.00 in1015.9 mb 0.00 in0.0 mm 0.00 in0.0 mm 0.00 in0.0 mm
09:30 AM 39.2°F4.0°C 30.2°F-1.0°C 69% 2.9 mph SSW4.7 kmh SSW 3.4 mph5.5 kmh 29.97 in1014.9 mb 0.00 in0.0 mm 0.00 in0.0 mm 0.00 in0.0 mm
09:35 AM 39.4°F4.1°C 30.2°F-1.0°C 68% 3.4 mph SW5.5 kmh SW 3.4 mph5.5 kmh 29.97 in1014.9 mb 0.00 in0.0 mm 0.00 in0.0 mm 0.00 in0.0 mm
09:40 AM 39.6°F4.2°C 30.2°F-1.0°C 68% 1.6 mph SSW2.6 kmh SSW 2.7 mph4.3 kmh 29.97 in1014.9 mb 0.00 in0.0 mm 0.00 in0.0 mm 0.00 in0.0 mm
09:45 AM 39.6°F4.2°C 30.2°F-1.0°C 67% 3.4 mph SSW5.5 kmh SSW 5.4 mph8.7 kmh 30.00 in1015.9 mb 0.00 in0.0 mm 0.00 in0.0 mm 0.00 in0.0 mm
09:50 AM 39.7°F4.3°C 30.2°F-1.0°C 66% 2.9 mph SW4.7 kmh SW 5.4 mph8.7 kmh 30.00 in1015.9 mb 0.00 in0.0 mm 0.00 in0.0 mm 0.00 in0.0 mm
09:55 AM 40.1°F4.5°C 30.2°F-1.0°C 66% 2.9 mph SW4.7 kmh SW 4.3 mph6.9 kmh 30.00 in1015.9 mb 0.00 in0.0 mm 0.00 in0.0 mm 0.00 in0.0 mm
10:00 AM 40.6°F4.8°C 30.2°F-1.0°C 66% 2.0 mph SW3.2 kmh SW 4.3 mph6.9 kmh 30.00 in1015.9 mb 0.00 in0.0 mm 0.00 in0.0 mm 0.00 in0.0 mm
10:05 AM 41.2°F5.1°C 30.2°F-1.0°C 65% 2.7 mph SW4.3 kmh SW 4.3 mph6.9 kmh 30.00 in1015.9 mb 0.00 in0.0 mm 0.00 in0.0 mm 0.00 in0.0 mm
10:10 AM 41.4°F5.2°C 30.2°F-1.0°C 64% 3.1 mph SW5.0 kmh SW 6.0 mph9.7 kmh 30.00 in1015.9 mb 0.00 in0.0 mm 0.00 in0.0 mm 0.00 in0.0 mm
10:15 AM 42.1°F5.6°C 32.0°F0.0°C 64% 2.9 mph SW4.7 kmh SW 6.0 mph9.7 kmh 30.00 in1015.9 mb 0.00 in0.0 mm 0.00 in0.0 mm 0.00 in0.0 mm
10:20 AM 44.1°F6.7°C 33.8°F1.0°C 64% 2.9 mph SW4.7 kmh SW 4.3 mph6.9 kmh 30.00 in1015.9 mb 0.00 in0.0 mm 0.00 in0.0 mm 0.00 in0.0 mm
10:25 AM 45.0°F7.2°C 32.0°F0.0°C 61% 2.9 mph SW4.7 kmh SW 4.9 mph7.9 kmh 30.00 in1015.9 mb 0.00 in0.0 mm 0.00 in0.0 mm 0.00 in0.0 mm
10:30 AM 45.0°F7.2°C 32.0°F0.0°C 58% 2.7 mph SW4.3 kmh SW 4.9 mph7.9 kmh 30.00 in1015.9 mb 0.00 in0.0 mm 0.00 in0.0 mm 0.00 in0.0 mm
10:35 AM 45.0°F7.2°C 32.0°F0.0°C 59% 2.7 mph SW4.3 kmh SW 4.9 mph7.9 kmh 30.00 in1015.9 mb 0.00 in0.0 mm 0.00 in0.0 mm 0.00 in0.0 mm
10:40 AM 45.5°F7.5°C 32.0°F0.0°C 58% 2.9 mph WSW4.7 kmh WSW 4.7 mph7.6 kmh 30.00 in1015.9 mb 0.00 in0.0 mm 0.00 in0.0 mm 0.00 in0.0 mm
10:45 AM 45.3°F7.4°C 30.2°F-1.0°C 57% 1.6 mph SW2.6 kmh SW 4.7 mph7.6 kmh 30.00 in1015.9 mb 0.00 in0.0 mm 0.00 in0.0 mm 0.00 in0.0 mm
10:50 AM 45.3°F7.4°C 30.2°F-1.0°C 55% 3.4 mph WSW5.5 kmh WSW 6.0 mph9.7 kmh 30.00 in1015.9 mb 0.00 in0.0 mm 0.00 in0.0 mm 0.00 in0.0 mm
10:55 AM 45.1°F7.3°C 30.2°F-1.0°C 55% 3.1 mph WSW5.0 kmh WSW 6.0 mph9.7 kmh 30.00 in1015.9 mb 0.00 in0.0 mm 0.00 in0.0 mm 0.00 in0.0 mm
11:00 AM 44.6°F7.0°C 30.2°F-1.0°C 54% 4.0 mph WSW6.4 kmh WSW 5.6 mph9.0 kmh 30.00 in1015.9 mb 0.00 in0.0 mm 0.00 in0.0 mm 0.00 in0.0 mm
11:05 AM 44.2°F6.8°C 28.4°F-2.0°C 54% 2.0 mph WSW3.2 kmh WSW 5.6 mph9.0 kmh 30.00 in1015.9 mb 0.00 in0.0 mm 0.00 in0.0 mm 0.00 in0.0 mm
11:10 AM 43.9°F6.6°C 28.4°F-2.0°C 54% 2.7 mph SW4.3 kmh SW 3.8 mph6.1 kmh 30.00 in1015.9 mb 0.00 in0.0 mm 0.00 in0.0 mm 0.00 in0.0 mm
11:15 AM 44.1°F6.7°C 28.4°F-2.0°C 55% 2.9 mph SW4.7 kmh SW 3.4 mph5.5 kmh 30.00 in1015.9 mb 0.00 in0.0 mm 0.00 in0.0 mm 0.00 in0.0 mm
11:20 AM 44.4°F6.9°C 30.2°F-1.0°C 55% 2.7 mph SW4.3 kmh SW 3.6 mph5.8 kmh 30.00 in1015.9 mb 0.00 in0.0 mm 0.00 in0.0 mm 0.00 in0.0 mm
11:25 AM 44.8°F7.1°C 30.2°F-1.0°C 55% 2.2 mph SW3.5 kmh SW 5.4 mph8.7 kmh 30.00 in1015.9 mb 0.00 in0.0 mm 0.00 in0.0 mm 0.00 in0.0 mm
11:30 AM 46.2°F7.9°C 30.2°F-1.0°C 55% 3.4 mph SW5.5 kmh SW 5.4 mph8.7 kmh 30.00 in1015.9 mb 0.00 in0.0 mm 0.00 in0.0 mm 0.00 in0.0 mm
11:35 AM 47.3°F8.5°C 32.0°F0.0°C 53% 4.9 mph WSW7.9 kmh WSW 7.2 mph11.6 kmh 30.00 in1015.9 mb 0.00 in0.0 mm 0.00 in0.0 mm 0.00 in0.0 mm
11:40 AM 47.7°F8.7°C 30.2°F-1.0°C 51% 4.0 mph WSW6.4 kmh WSW 7.8 mph12.6 kmh 30.00 in1015.9 mb 0.00 in0.0 mm 0.00 in0.0 mm 0.00 in0.0 mm
11:45 AM 46.8°F8.2°C 30.2°F-1.0°C 50% 4.5 mph WSW7.2 kmh WSW 7.8 mph12.6 kmh 29.97 in1014.9 mb 0.00 in0.0 mm 0.00 in0.0 mm 0.00 in0.0 mm
11:50 AM 46.2°F7.9°C 28.4°F-2.0°C 50% 5.4 mph WSW8.7 kmh WSW 8.9 mph14.3 kmh 29.97 in1014.9 mb 0.00 in0.0 mm 0.00 in0.0 mm 0.00 in0.0 mm
11:55 AM 46.8°F8.2°C 30.2°F-1.0°C 50% 6.9 mph WSW11.1 kmh WSW 8.9 mph14.3 kmh 29.97 in1014.9 mb 0.00 in0.0 mm 0.00 in0.0 mm 0.00 in0.0 mm
12:00 PM 48.2°F9.0°C 30.2°F-1.0°C 50% 3.6 mph WSW5.8 kmh WSW 7.8 mph12.6 kmh 29.97 in1014.9 mb 0.00 in0.0 mm 0.00 in0.0 mm 0.00 in0.0 mm
12:05 PM 49.3°F9.6°C 32.0°F0.0°C 49% 4.5 mph WSW7.2 kmh WSW 6.5 mph10.5 kmh 29.97 in1014.9 mb 0.00 in0.0 mm 0.00 in0.0 mm 0.00 in0.0 mm
12:10 PM 49.1°F9.5°C 32.0°F0.0°C 49% 4.7 mph WSW7.6 kmh WSW 8.5 mph13.7 kmh 29.97 in1014.9 mb 0.00 in0.0 mm 0.00 in0.0 mm 0.00 in0.0 mm
12:15 PM 50.5°F10.3°C 32.0°F0.0°C 49% 3.4 mph WSW5.5 kmh WSW 8.5 mph13.7 kmh 29.97 in1014.9 mb 0.00 in0.0 mm 0.00 in0.0 mm 0.00 in0.0 mm
12:20 PM 51.4°F10.8°C 32.0°F0.0°C 48% 3.4 mph WSW5.5 kmh WSW 9.8 mph15.8 kmh 29.97 in1014.9 mb 0.00 in0.0 mm 0.00 in0.0 mm 0.00 in0.0 mm
12:25 PM 52.3°F11.3°C 33.8°F1.0°C 47% 4.7 mph WSW7.6 kmh WSW 9.8 mph15.8 kmh 29.97 in1014.9 mb 0.00 in0.0 mm 0.00 in0.0 mm 0.00 in0.0 mm
12:30 PM 52.5°F11.4°C 33.8°F1.0°C 47% 4.3 mph WSW6.9 kmh WSW 8.1 mph13.0 kmh 29.97 in1014.9 mb 0.00 in0.0 mm 0.00 in0.0 mm 0.00 in0.0 mm
12:35 PM 52.7°F11.5°C 33.8°F1.0°C 46% 4.7 mph WSW7.6 kmh WSW 8.1 mph13.0 kmh 29.97 in1014.9 mb 0.00 in0.0 mm 0.00 in0.0 mm 0.00 in0.0 mm
12:40 PM 52.3°F11.3°C 32.0°F0.0°C 45% 4.9 mph WSW7.9 kmh WSW 7.6 mph12.2 kmh 29.97 in1014.9 mb 0.00 in0.0 mm 0.00 in0.0 mm 0.00 in0.0 mm
12:45 PM 51.6°F10.9°C 32.0°F0.0°C 45% 3.6 mph WSW5.8 kmh WSW 7.6 mph12.2 kmh 29.94 in1013.9 mb 0.00 in0.0 mm 0.00 in0.0 mm 0.00 in0.0 mm
12:50 PM 50.0°F10.0°C 30.2°F-1.0°C 45% 2.2 mph WSW3.5 kmh WSW 5.4 mph8.7 kmh 29.94 in1013.9 mb 0.00 in0.0 mm 0.00 in0.0 mm 0.00 in0.0 mm
12:55 PM 48.9°F9.4°C 28.4°F-2.0°C 45% 3.6 mph WSW5.8 kmh WSW 5.8 mph9.3 kmh 29.94 in1013.9 mb 0.00 in0.0 mm 0.00 in0.0 mm 0.00 in0.0 mm
01:00 PM 47.7°F8.7°C 28.4°F-2.0°C 45% 5.8 mph WSW9.3 kmh WSW 6.0 mph9.7 kmh 29.97 in1014.9 mb 0.00 in0.0 mm 0.00 in0.0 mm 0.00 in0.0 mm
01:05 PM 47.8°F8.8°C 28.4°F-2.0°C 46% 2.0 mph WSW3.2 kmh WSW 6.5 mph10.5 kmh 29.97 in1014.9 mb 0.00 in0.0 mm 0.00 in0.0 mm 0.00 in0.0 mm
01:10 PM 47.3°F8.5°C 28.4°F-2.0°C 46% 3.4 mph WSW5.5 kmh WSW 6.5 mph10.5 kmh 29.97 in1014.9 mb 0.00 in0.0 mm 0.00 in0.0 mm 0.00 in0.0 mm
01:15 PM 47.8°F8.8°C 30.2°F-1.0°C 47% 3.4 mph WSW5.5 kmh WSW 8.5 mph13.7 kmh 29.94 in1013.9 mb 0.00 in0.0 mm 0.00 in0.0 mm 0.00 in0.0 mm
01:20 PM 48.9°F9.4°C 30.2°F-1.0°C 47% 5.4 mph WSW8.7 kmh WSW 8.5 mph13.7 kmh 29.94 in1013.9 mb 0.00 in0.0 mm 0.00 in0.0 mm 0.00 in0.0 mm
01:25 PM 48.9°F9.4°C 30.2°F-1.0°C 47% 3.1 mph WSW5.0 kmh WSW 10.5 mph16.9 kmh 29.94 in1013.9 mb 0.00 in0.0 mm 0.00 in0.0 mm 0.00 in0.0 mm
01:30 PM 49.1°F9.5°C 30.2°F-1.0°C 47% 2.7 mph WSW4.3 kmh WSW 10.5 mph16.9 kmh 29.94 in1013.9 mb 0.00 in0.0 mm 0.00 in0.0 mm 0.00 in0.0 mm
01:35 PM 49.6°F9.8°C 30.2°F-1.0°C 46% 6.0 mph WSW9.7 kmh WSW 10.1 mph16.3 kmh 29.94 in1013.9 mb 0.00 in0.0 mm 0.00 in0.0 mm 0.00 in0.0 mm
01:40 PM 50.0°F10.0°C 30.2°F-1.0°C 46% 2.9 mph W4.7 kmh W 8.5 mph13.7 kmh 29.94 in1013.9 mb 0.00 in0.0 mm 0.00 in0.0 mm 0.00 in0.0 mm
01:45 PM 50.5°F10.3°C 30.2°F-1.0°C 46% 4.3 mph WSW6.9 kmh WSW 8.5 mph13.7 kmh 29.91 in1012.9 mb 0.00 in0.0 mm 0.00 in0.0 mm 0.00 in0.0 mm
01:50 PM 51.1°F10.6°C 30.2°F-1.0°C 45% 3.8 mph WSW6.1 kmh WSW 7.4 mph11.9 kmh 29.91 in1012.9 mb 0.00 in0.0 mm 0.00 in0.0 mm 0.00 in0.0 mm
01:55 PM 50.7°F10.4°C 30.2°F-1.0°C 45% 3.6 mph WSW5.8 kmh WSW 7.4 mph11.9 kmh 29.91 in1012.9 mb 0.00 in0.0 mm 0.00 in0.0 mm 0.00 in0.0 mm
02:00 PM 50.4°F10.2°C 30.2°F-1.0°C 45% 4.5 mph WSW7.2 kmh WSW 6.3 mph10.1 kmh 29.94 in1013.9 mb 0.00 in0.0 mm 0.00 in0.0 mm 0.00 in0.0 mm
02:05 PM 50.2°F10.1°C 30.2°F-1.0°C 45% 4.5 mph SW7.2 kmh SW 7.8 mph12.6 kmh 29.94 in1013.9 mb 0.00 in0.0 mm 0.00 in0.0 mm 0.00 in0.0 mm
02:10 PM 50.2°F10.1°C 30.2°F-1.0°C 45% 3.6 mph WSW5.8 kmh WSW 7.8 mph12.6 kmh 29.94 in1013.9 mb 0.00 in0.0 mm 0.00 in0.0 mm 0.00 in0.0 mm
02:15 PM 50.0°F10.0°C 30.2°F-1.0°C 46% 2.5 mph WSW4.0 kmh WSW 7.8 mph12.6 kmh 29.94 in1013.9 mb 0.00 in0.0 mm 0.00 in0.0 mm 0.00 in0.0 mm
02:20 PM 49.8°F9.9°C 30.2°F-1.0°C 45% 4.5 mph WSW7.2 kmh WSW 6.5 mph10.5 kmh 29.94 in1013.9 mb 0.00 in0.0 mm 0.00 in0.0 mm 0.00 in0.0 mm
02:25 PM 49.1°F9.5°C 30.2°F-1.0°C 45% 4.0 mph WSW6.4 kmh WSW 7.2 mph11.6 kmh 29.94 in1013.9 mb 0.00 in0.0 mm 0.00 in0.0 mm 0.00 in0.0 mm
02:30 PM 48.9°F9.4°C 30.2°F-1.0°C 46% 3.1 mph WSW5.0 kmh WSW 7.2 mph11.6 kmh 29.94 in1013.9 mb 0.00 in0.0 mm 0.00 in0.0 mm 0.00 in0.0 mm
02:35 PM 48.7°F9.3°C 30.2°F-1.0°C 46% 4.9 mph WSW7.9 kmh WSW 6.5 mph10.5 kmh 29.94 in1013.9 mb 0.00 in0.0 mm 0.00 in0.0 mm 0.00 in0.0 mm
02:40 PM 48.4°F9.1°C 28.4°F-2.0°C 45% 4.9 mph WSW7.9 kmh WSW 6.9 mph11.1 kmh 29.94 in1013.9 mb 0.00 in0.0 mm 0.00 in0.0 mm 0.00 in0.0 mm
02:45 PM 47.7°F8.7°C 28.4°F-2.0°C 46% 3.8 mph WSW6.1 kmh WSW 7.8 mph12.6 kmh 29.97 in1014.9 mb 0.00 in0.0 mm 0.00 in0.0 mm 0.00 in0.0 mm
02:50 PM 47.7°F8.7°C 28.4°F-2.0°C 46% 6.0 mph WSW9.7 kmh WSW 7.8 mph12.6 kmh 29.97 in1014.9 mb 0.00 in0.0 mm 0.00 in0.0 mm 0.00 in0.0 mm
02:55 PM 47.5°F8.6°C 28.4°F-2.0°C 45% 6.0 mph WSW9.7 kmh WSW 8.5 mph13.7 kmh 29.97 in1014.9 mb 0.00 in0.0 mm 0.00 in0.0 mm 0.00 in0.0 mm
03:00 PM 47.5°F8.6°C 28.4°F-2.0°C 46% 5.4 mph WSW8.7 kmh WSW 8.5 mph13.7 kmh 29.97 in1014.9 mb 0.00 in0.0 mm 0.00 in0.0 mm 0.00 in0.0 mm
03:05 PM 47.7°F8.7°C 28.4°F-2.0°C 46% 3.6 mph WSW5.8 kmh WSW 6.5 mph10.5 kmh 29.97 in1014.9 mb 0.00 in0.0 mm 0.00 in0.0 mm 0.00 in0.0 mm
03:10 PM 47.7°F8.7°C 28.4°F-2.0°C 46% 3.4 mph WSW5.5 kmh WSW 7.6 mph12.2 kmh 29.97 in1014.9 mb 0.00 in0.0 mm 0.00 in0.0 mm 0.00 in0.0 mm
03:15 PM 47.7°F8.7°C 28.4°F-2.0°C 46% 4.9 mph WSW7.9 kmh WSW 7.8 mph12.6 kmh 29.97 in1014.9 mb 0.00 in0.0 mm 0.00 in0.0 mm 0.00 in0.0 mm
03:20 PM 47.7°F8.7°C 28.4°F-2.0°C 46% 3.8 mph WSW6.1 kmh WSW 7.8 mph12.6 kmh 29.97 in1014.9 mb 0.00 in0.0 mm 0.00 in0.0 mm 0.00 in0.0 mm
03:25 PM 47.8°F8.8°C 28.4°F-2.0°C 46% 4.0 mph WSW6.4 kmh WSW 6.5 mph10.5 kmh 29.97 in1014.9 mb 0.00 in0.0 mm 0.00 in0.0 mm 0.00 in0.0 mm
03:30 PM 47.8°F8.8°C 28.4°F-2.0°C 46% 4.3 mph WSW6.9 kmh WSW 6.5 mph10.5 kmh 29.97 in1014.9 mb 0.00 in0.0 mm 0.00 in0.0 mm 0.00 in0.0 mm
03:35 PM 48.0°F8.9°C 28.4°F-2.0°C 46% 3.4 mph WSW5.5 kmh WSW 6.5 mph10.5 kmh 29.97 in1014.9 mb 0.00 in0.0 mm 0.00 in0.0 mm 0.00 in0.0 mm
03:40 PM 48.0°F8.9°C 28.4°F-2.0°C 45% 3.6 mph WSW5.8 kmh WSW 6.3 mph10.1 kmh 29.97 in1014.9 mb 0.00 in0.0 mm 0.00 in0.0 mm 0.00 in0.0 mm
03:45 PM 48.0°F8.9°C 28.4°F-2.0°C 46% 2.9 mph SW4.7 kmh SW 6.3 mph10.1 kmh 29.97 in1014.9 mb 0.00 in0.0 mm 0.00 in0.0 mm 0.00 in0.0 mm
03:50 PM 48.2°F9.0°C 28.4°F-2.0°C 46% 2.5 mph SW4.0 kmh SW 3.4 mph5.5 kmh 29.97 in1014.9 mb 0.00 in0.0 mm 0.00 in0.0 mm 0.00 in0.0 mm
03:55 PM 48.0°F8.9°C 28.4°F-2.0°C 46% 2.2 mph WSW3.5 kmh WSW 4.0 mph6.4 kmh 29.97 in1014.9 mb 0.00 in0.0 mm 0.00 in0.0 mm 0.00 in0.0 mm
04:00 PM 48.0°F8.9°C 28.4°F-2.0°C 45% 4.9 mph WSW7.9 kmh WSW 6.3 mph10.1 kmh 29.97 in1014.9 mb 0.00 in0.0 mm 0.00 in0.0 mm 0.00 in0.0 mm
04:05 PM 47.7°F8.7°C 26.6°F-3.0°C 44% 3.8 mph WSW6.1 kmh WSW 6.5 mph10.5 kmh 29.97 in1014.9 mb 0.00 in0.0 mm 0.00 in0.0 mm 0.00 in0.0 mm
04:10 PM 47.5°F8.6°C 28.4°F-2.0°C 45% 2.0 mph WSW3.2 kmh WSW 6.5 mph10.5 kmh 29.97 in1014.9 mb 0.00 in0.0 mm 0.00 in0.0 mm 0.00 in0.0 mm
04:15 PM 47.3°F8.5°C 26.6°F-3.0°C 44% 3.6 mph WSW5.8 kmh WSW 6.5 mph10.5 kmh 29.97 in1014.9 mb 0.00 in0.0 mm 0.00 in0.0 mm 0.00 in0.0 mm
04:20 PM 47.1°F8.4°C 26.6°F-3.0°C 43% 3.4 mph SW5.5 kmh SW 4.7 mph7.6 kmh 29.97 in1014.9 mb 0.00 in0.0 mm 0.00 in0.0 mm 0.00 in0.0 mm
04:25 PM 46.8°F8.2°C 24.8°F-4.0°C 43% 5.6 mph WSW9.0 kmh WSW 7.2 mph11.6 kmh 29.97 in1014.9 mb 0.00 in0.0 mm 0.00 in0.0 mm 0.00 in0.0 mm
04:30 PM 46.4°F8.0°C 26.6°F-3.0°C 44% 5.6 mph WSW9.0 kmh WSW 7.2 mph11.6 kmh 30.00 in1015.9 mb 0.00 in0.0 mm 0.00 in0.0 mm 0.00 in0.0 mm
04:35 PM 46.2°F7.9°C 26.6°F-3.0°C 44% 2.5 mph WSW4.0 kmh WSW 7.2 mph11.6 kmh 30.00 in1015.9 mb 0.00 in0.0 mm 0.00 in0.0 mm 0.00 in0.0 mm
04:40 PM 46.0°F7.8°C 26.6°F-3.0°C 45% 2.5 mph WSW4.0 kmh WSW 7.2 mph11.6 kmh 30.00 in1015.9 mb 0.00 in0.0 mm 0.00 in0.0 mm 0.00 in0.0 mm
04:45 PM 45.9°F7.7°C 24.8°F-4.0°C 44% 4.5 mph WSW7.2 kmh WSW 5.4 mph8.7 kmh 30.00 in1015.9 mb 0.00 in0.0 mm 0.00 in0.0 mm 0.00 in0.0 mm
04:50 PM 45.5°F7.5°C 24.8°F-4.0°C 44% 4.7 mph WSW7.6 kmh WSW 5.4 mph8.7 kmh 30.00 in1015.9 mb 0.00 in0.0 mm 0.00 in0.0 mm 0.00 in0.0 mm
04:55 PM 45.3°F7.4°C 24.8°F-4.0°C 45% 3.1 mph WSW5.0 kmh WSW 5.4 mph8.7 kmh 30.00 in1015.9 mb 0.00 in0.0 mm 0.00 in0.0 mm 0.00 in0.0 mm
05:00 PM 45.0°F7.2°C 24.8°F-4.0°C 45% 3.4 mph WSW5.5 kmh WSW 4.3 mph6.9 kmh 30.00 in1015.9 mb 0.00 in0.0 mm 0.00 in0.0 mm 0.00 in0.0 mm
05:05 PM 44.8°F7.1°C 24.8°F-4.0°C 45% 3.4 mph WSW5.5 kmh WSW 3.8 mph6.1 kmh 30.00 in1015.9 mb 0.00 in0.0 mm 0.00 in0.0 mm 0.00 in0.0 mm
05:10 PM 44.6°F7.0°C 24.8°F-4.0°C 46% 2.0 mph WSW3.2 kmh WSW 3.8 mph6.1 kmh 30.00 in1015.9 mb 0.00 in0.0 mm 0.00 in0.0 mm 0.00 in0.0 mm
05:15 PM 44.2°F6.8°C 24.8°F-4.0°C 46% 2.0 mph WSW3.2 kmh WSW 3.4 mph5.5 kmh 30.00 in1015.9 mb 0.00 in0.0 mm 0.00 in0.0 mm 0.00 in0.0 mm
05:20 PM 43.9°F6.6°C 24.8°F-4.0°C 46% 1.6 mph WSW2.6 kmh WSW 5.6 mph9.0 kmh 30.00 in1015.9 mb 0.00 in0.0 mm 0.00 in0.0 mm 0.00 in0.0 mm
05:25 PM 43.7°F6.5°C 24.8°F-4.0°C 46% Calm Calm 5.6 mph9.0 kmh 30.00 in1015.9 mb 0.00 in0.0 mm 0.00 in0.0 mm 0.00 in0.0 mm
05:30 PM 43.2°F6.2°C 24.8°F-4.0°C 47% Calm Calm 2.2 mph3.5 kmh 30.00 in1015.9 mb 0.00 in0.0 mm 0.00 in0.0 mm 0.00 in0.0 mm
05:35 PM 42.8°F6.0°C 24.8°F-4.0°C 47% 1.1 mph SW1.8 kmh SW 1.6 mph2.6 kmh 30.00 in1015.9 mb 0.00 in0.0 mm 0.00 in0.0 mm 0.00 in0.0 mm
05:40 PM 42.3°F5.7°C 23.0°F-5.0°C 47% Calm Calm 1.3 mph2.1 kmh 30.00 in1015.9 mb 0.00 in0.0 mm 0.00 in0.0 mm 0.00 in0.0 mm
05:45 PM 42.1°F5.6°C 24.8°F-4.0°C 48% Calm Calm 1.3 mph2.1 kmh 30.00 in1015.9 mb 0.00 in0.0 mm 0.00 in0.0 mm 0.00 in0.0 mm
05:50 PM 42.1°F5.6°C 24.8°F-4.0°C 49% Calm Calm 1.6 mph2.6 kmh 30.00 in1015.9 mb 0.00 in0.0 mm 0.00 in0.0 mm 0.00 in0.0 mm
05:55 PM 41.9°F5.5°C 24.8°F-4.0°C 49% 2.5 mph WSW4.0 kmh WSW 3.6 mph5.8 kmh 30.00 in1015.9 mb 0.00 in0.0 mm 0.00 in0.0 mm 0.00 in0.0 mm
06:00 PM 41.9°F5.5°C 24.8°F-4.0°C 50% 0.9 mph WSW1.4 kmh WSW 3.6 mph5.8 kmh 30.00 in1015.9 mb 0.00 in0.0 mm 0.00 in0.0 mm 0.00 in0.0 mm
06:05 PM 41.5°F5.3°C 24.8°F-4.0°C 50% 1.6 mph SW2.6 kmh SW 2.5 mph4.0 kmh 30.00 in1015.9 mb 0.00 in0.0 mm 0.00 in0.0 mm 0.00 in0.0 mm
06:10 PM 41.4°F5.2°C 24.8°F-4.0°C 50% 0.9 mph SW1.4 kmh SW 2.5 mph4.0 kmh 30.00 in1015.9 mb 0.00 in0.0 mm 0.00 in0.0 mm 0.00 in0.0 mm
06:15 PM 40.8°F4.9°C 23.0°F-5.0°C 50% 1.1 mph SW1.8 kmh SW 2.5 mph4.0 kmh 30.00 in1015.9 mb 0.00 in0.0 mm 0.00 in0.0 mm 0.00 in0.0 mm
06:20 PM 40.5°F4.7°C 23.0°F-5.0°C 50% 1.1 mph SW1.8 kmh SW 1.3 mph2.1 kmh 30.00 in1015.9 mb 0.00 in0.0 mm 0.00 in0.0 mm 0.00 in0.0 mm
06:25 PM 40.1°F4.5°C 23.0°F-5.0°C 50% Calm Calm 1.3 mph2.1 kmh 30.00 in1015.9 mb 0.00 in0.0 mm 0.00 in0.0 mm 0.00 in0.0 mm
06:30 PM 39.7°F4.3°C 23.0°F-5.0°C 51% 0.9 mph SW1.4 kmh SW 1.3 mph2.1 kmh 29.97 in1014.9 mb 0.00 in0.0 mm 0.00 in0.0 mm 0.00 in0.0 mm
06:35 PM 39.7°F4.3°C 23.0°F-5.0°C 51% Calm Calm 1.6 mph2.6 kmh 29.97 in1014.9 mb 0.00 in0.0 mm 0.00 in0.0 mm 0.00 in0.0 mm
06:40 PM 39.6°F4.2°C 23.0°F-5.0°C 51% 1.6 mph SW2.6 kmh SW 1.6 mph2.6 kmh 29.97 in1014.9 mb 0.00 in0.0 mm 0.00 in0.0 mm 0.00 in0.0 mm
06:45 PM 39.6°F4.2°C 23.0°F-5.0°C 51% 1.1 mph WSW1.8 kmh WSW 2.5 mph4.0 kmh 30.00 in1015.9 mb 0.00 in0.0 mm 0.00 in0.0 mm 0.00 in0.0 mm
06:50 PM 39.6°F4.2°C 23.0°F-5.0°C 52% 1.6 mph SW2.6 kmh SW 2.5 mph4.0 kmh 30.00 in1015.9 mb 0.00 in0.0 mm 0.00 in0.0 mm 0.00 in0.0 mm
06:55 PM 39.4°F4.1°C 23.0°F-5.0°C 52% 1.1 mph SW1.8 kmh SW 2.0 mph3.2 kmh 30.00 in1015.9 mb 0.00 in0.0 mm 0.00 in0.0 mm 0.00 in0.0 mm
07:00 PM 39.0°F3.9°C 23.0°F-5.0°C 52% 1.1 mph SW1.8 kmh SW 2.0 mph3.2 kmh 30.00 in1015.9 mb 0.00 in0.0 mm 0.00 in0.0 mm 0.00 in0.0 mm
07:05 PM 38.7°F3.7°C 23.0°F-5.0°C 52% Calm Calm 1.1 mph1.8 kmh 30.00 in1015.9 mb 0.00 in0.0 mm 0.00 in0.0 mm 0.00 in0.0 mm
07:10 PM 38.3°F3.5°C 23.0°F-5.0°C 52% Calm Calm 1.1 mph1.8 kmh 30.00 in1015.9 mb 0.00 in0.0 mm 0.00 in0.0 mm 0.00 in0.0 mm
07:15 PM 38.1°F3.4°C 23.0°F-5.0°C 52% Calm Calm -- 30.00 in1015.9 mb 0.00 in0.0 mm 0.00 in0.0 mm 0.00 in0.0 mm
07:20 PM 38.1°F3.4°C 23.0°F-5.0°C 53% Calm Calm -- 30.00 in1015.9 mb 0.00 in0.0 mm 0.00 in0.0 mm 0.00 in0.0 mm
07:25 PM 37.9°F3.3°C 23.0°F-5.0°C 53% Calm Calm -- 30.00 in1015.9 mb 0.00 in0.0 mm 0.00 in0.0 mm 0.00 in0.0 mm
07:30 PM 37.8°F3.2°C 23.0°F-5.0°C 53% Calm Calm -- 30.00 in1015.9 mb 0.00 in0.0 mm 0.00 in0.0 mm 0.00 in0.0 mm
07:35 PM 37.6°F3.1°C 23.0°F-5.0°C 53% Calm Calm -- 30.00 in1015.9 mb 0.00 in0.0 mm 0.00 in0.0 mm 0.00 in0.0 mm
07:40 PM 37.4°F3.0°C 23.0°F-5.0°C 53% Calm Calm -- 30.00 in1015.9 mb 0.00 in0.0 mm 0.00 in0.0 mm 0.00 in0.0 mm
07:45 PM 37.4°F3.0°C 23.0°F-5.0°C 54% Calm Calm -- 30.03 in1016.9 mb 0.00 in0.0 mm 0.00 in0.0 mm 0.00 in0.0 mm
07:50 PM 37.6°F3.1°C 23.0°F-5.0°C 54% Calm Calm -- 30.03 in1016.9 mb 0.00 in0.0 mm 0.00 in0.0 mm 0.00 in0.0 mm
07:55 PM 37.6°F3.1°C 23.0°F-5.0°C 55% Calm Calm -- 30.03 in1016.9 mb 0.00 in0.0 mm 0.00 in0.0 mm 0.00 in0.0 mm
08:00 PM 37.2°F2.9°C 23.0°F-5.0°C 55% Calm Calm -- 30.03 in1016.9 mb 0.00 in0.0 mm 0.00 in0.0 mm 0.00 in0.0 mm
08:05 PM 37.0°F2.8°C 23.0°F-5.0°C 55% Calm Calm -- 30.03 in1016.9 mb 0.00 in0.0 mm 0.00 in0.0 mm 0.00 in0.0 mm
08:10 PM 36.9°F2.7°C 23.0°F-5.0°C 55% Calm Calm -- 30.03 in1016.9 mb 0.00 in0.0 mm 0.00 in0.0 mm 0.00 in0.0 mm
08:15 PM 36.7°F2.6°C 23.0°F-5.0°C 55% Calm Calm -- 30.03 in1016.9 mb 0.00 in0.0 mm 0.00 in0.0 mm 0.00 in0.0 mm
08:20 PM 36.3°F2.4°C 21.2°F-6.0°C 55% Calm Calm -- 30.03 in1016.9 mb 0.00 in0.0 mm 0.00 in0.0 mm 0.00 in0.0 mm
08:25 PM 36.1°F2.3°C 21.2°F-6.0°C 55% Calm Calm -- 30.03 in1016.9 mb 0.00 in0.0 mm 0.00 in0.0 mm 0.00 in0.0 mm
08:30 PM 36.1°F2.3°C 23.0°F-5.0°C 56% Calm Calm -- 30.03 in1016.9 mb 0.00 in0.0 mm 0.00 in0.0 mm 0.00 in0.0 mm
08:35 PM 36.3°F2.4°C 23.0°F-5.0°C 57% 0.9 mph 1.4 kmh -- 30.03 in1016.9 mb 0.00 in0.0 mm 0.00 in0.0 mm 0.00 in0.0 mm
08:40 PM 36.0°F2.2°C 23.0°F-5.0°C 57% Calm Calm -- 30.03 in1016.9 mb 0.00 in0.0 mm 0.00 in0.0 mm 0.00 in0.0 mm
08:45 PM 35.6°F2.0°C 23.0°F-5.0°C 57% Calm Calm -- 30.03 in1016.9 mb 0.00 in0.0 mm 0.00 in0.0 mm 0.00 in0.0 mm
08:50 PM 35.2°F1.8°C 21.2°F-6.0°C 57% Calm Calm -- 30.03 in1016.9 mb 0.00 in0.0 mm 0.00 in0.0 mm 0.00 in0.0 mm
08:55 PM 35.1°F1.7°C 21.2°F-6.0°C 57% Calm Calm -- 30.03 in1016.9 mb 0.00 in0.0 mm 0.00 in0.0 mm 0.00 in0.0 mm
09:00 PM 34.9°F1.6°C 21.2°F-6.0°C 57% Calm Calm -- 30.03 in1016.9 mb 0.00 in0.0 mm 0.00 in0.0 mm 0.00 in0.0 mm
09:05 PM 34.7°F1.5°C 21.2°F-6.0°C 58% Calm Calm -- 30.03 in1016.9 mb 0.00 in0.0 mm 0.00 in0.0 mm 0.00 in0.0 mm
09:10 PM 34.7°F1.5°C 21.2°F-6.0°C 58% Calm Calm -- 30.03 in1016.9 mb 0.00 in0.0 mm 0.00 in0.0 mm 0.00 in0.0 mm
09:15 PM 34.3°F1.3°C 21.2°F-6.0°C 58% Calm Calm -- 30.03 in1016.9 mb 0.00 in0.0 mm 0.00 in0.0 mm 0.00 in0.0 mm
09:20 PM 33.6°F0.9°C 21.2°F-6.0°C 59% Calm Calm -- 30.03 in1016.9 mb 0.00 in0.0 mm 0.00 in0.0 mm 0.00 in0.0 mm
09:25 PM 33.1°F0.6°C 21.2°F-6.0°C 60% Calm Calm -- 30.03 in1016.9 mb 0.00 in0.0 mm 0.00 in0.0 mm 0.00 in0.0 mm
09:30 PM 32.9°F0.5°C 21.2°F-6.0°C 61% Calm Calm -- 30.03 in1016.9 mb 0.00 in0.0 mm 0.00 in0.0 mm 0.00 in0.0 mm
09:35 PM 32.7°F0.4°C 21.2°F-6.0°C 61% Calm Calm -- 30.03 in1016.9 mb 0.00 in0.0 mm 0.00 in0.0 mm 0.00 in0.0 mm
09:40 PM 32.7°F0.4°C 21.2°F-6.0°C 61% Calm Calm -- 30.03 in1016.9 mb 0.00 in0.0 mm 0.00 in0.0 mm 0.00 in0.0 mm
09:45 PM 32.7°F0.4°C 21.2°F-6.0°C 62% Calm Calm -- 30.06 in1017.9 mb 0.00 in0.0 mm 0.00 in0.0 mm 0.00 in0.0 mm
09:50 PM 32.9°F0.5°C 21.2°F-6.0°C 62% Calm Calm -- 30.06 in1017.9 mb 0.00 in0.0 mm 0.00 in0.0 mm 0.00 in0.0 mm
09:55 PM 32.4°F0.2°C 21.2°F-6.0°C 62% Calm Calm -- 30.06 in1017.9 mb 0.00 in0.0 mm 0.00 in0.0 mm 0.00 in0.0 mm
10:00 PM 32.4°F0.2°C 21.2°F-6.0°C 63% Calm Calm -- 30.06 in1017.9 mb 0.00 in0.0 mm 0.00 in0.0 mm 0.00 in0.0 mm
10:05 PM 32.4°F0.2°C 21.2°F-6.0°C 63% Calm Calm -- 30.06 in1017.9 mb 0.00 in0.0 mm 0.00 in0.0 mm 0.00 in0.0 mm
10:10 PM 32.7°F0.4°C 23.0°F-5.0°C 66% Calm Calm -- 30.06 in1017.9 mb 0.00 in0.0 mm 0.00 in0.0 mm 0.00 in0.0 mm
10:15 PM 33.1°F0.6°C 23.0°F-5.0°C 67% Calm Calm -- 30.06 in1017.9 mb 0.00 in0.0 mm 0.00 in0.0 mm 0.00 in0.0 mm
10:20 PM 33.3°F0.7°C 23.0°F-5.0°C 67% Calm Calm -- 30.06 in1017.9 mb 0.00 in0.0 mm 0.00 in0.0 mm 0.00 in0.0 mm
10:25 PM 33.3°F0.7°C 23.0°F-5.0°C 66% Calm Calm -- 30.06 in1017.9 mb 0.00 in0.0 mm 0.00 in0.0 mm 0.00 in0.0 mm
10:30 PM 32.5°F0.3°C 23.0°F-5.0°C 65% Calm Calm -- 30.06 in1017.9 mb 0.00 in0.0 mm 0.00 in0.0 mm 0.00 in0.0 mm
10:35 PM 32.0°F0.0°C 21.2°F-6.0°C 65% Calm Calm -- 30.06 in1017.9 mb 0.00 in0.0 mm 0.00 in0.0 mm 0.00 in0.0 mm
10:40 PM 32.0°F0.0°C 21.2°F-6.0°C 65% Calm Calm -- 30.06 in1017.9 mb 0.00 in0.0 mm 0.00 in0.0 mm 0.00 in0.0 mm
10:45 PM 32.0°F0.0°C 21.2°F-6.0°C 65% Calm Calm -- 30.06 in1017.9 mb 0.00 in0.0 mm 0.00 in0.0 mm 0.00 in0.0 mm
10:50 PM 32.0°F0.0°C 21.2°F-6.0°C 65% Calm Calm -- 30.06 in1017.9 mb 0.00 in0.0 mm 0.00 in0.0 mm 0.00 in0.0 mm
10:55 PM 32.0°F0.0°C 21.2°F-6.0°C 65% Calm Calm -- 30.06 in1017.9 mb 0.00 in0.0 mm 0.00 in0.0 mm 0.00 in0.0 mm
11:00 PM 31.6°F-0.2°C 21.2°F-6.0°C 66% Calm Calm -- 30.06 in1017.9 mb 0.00 in0.0 mm 0.00 in0.0 mm 0.00 in0.0 mm
11:05 PM 31.5°F-0.3°C 19.4°F-7.0°C 66% Calm Calm -- 30.06 in1017.9 mb 0.00 in0.0 mm 0.00 in0.0 mm 0.00 in0.0 mm
11:10 PM 31.3°F-0.4°C 19.4°F-7.0°C 65% Calm Calm -- 30.06 in1017.9 mb 0.00 in0.0 mm 0.00 in0.0 mm 0.00 in0.0 mm
11:15 PM 31.1°F-0.5°C 19.4°F-7.0°C 66% Calm Calm -- 30.06 in1017.9 mb 0.00 in0.0 mm 0.00 in0.0 mm 0.00 in0.0 mm
11:20 PM 30.9°F-0.6°C 19.4°F-7.0°C 67% Calm Calm -- 30.06 in1017.9 mb 0.00 in0.0 mm 0.00 in0.0 mm 0.00 in0.0 mm
11:25 PM 30.4°F-0.9°C 19.4°F-7.0°C 67% Calm Calm -- 30.06 in1017.9 mb 0.00 in0.0 mm 0.00 in0.0 mm 0.00 in0.0 mm
11:30 PM 30.2°F-1.0°C 19.4°F-7.0°C 66% Calm Calm -- 30.06 in1017.9 mb 0.00 in0.0 mm 0.00 in0.0 mm 0.00 in0.0 mm
11:35 PM 30.2°F-1.0°C 19.4°F-7.0°C 68% Calm Calm -- 30.06 in1017.9 mb 0.00 in0.0 mm 0.00 in0.0 mm 0.00 in0.0 mm
11:40 PM 29.8°F-1.2°C 19.4°F-7.0°C 69% Calm Calm -- 30.06 in1017.9 mb 0.00 in0.0 mm 0.00 in0.0 mm 0.00 in0.0 mm
11:45 PM 29.7°F-1.3°C 19.4°F-7.0°C 69% Calm Calm -- 30.06 in1017.9 mb 0.00 in0.0 mm 0.00 in0.0 mm 0.00 in0.0 mm
11:50 PM 29.7°F-1.3°C 19.4°F-7.0°C 69% Calm Calm -- 30.06 in1017.9 mb 0.00 in0.0 mm 0.00 in0.0 mm 0.00 in0.0 mm
11:55 PM 29.7°F-1.3°C 19.4°F-7.0°C 69% Calm Calm -- 30.06 in1017.9 mb 0.00 in0.0 mm 0.00 in0.0 mm 0.00 in0.0 mm